sensor_id;sensor_type;location;lat;lon;timestamp;P1;durP1;ratioP1;P2;durP2;ratioP2
13163;SDS011;6647;53.688;10.746;2022-09-21T00:00:38;1.75;;;1.38;;
13163;SDS011;6647;53.688;10.746;2022-09-21T00:01:59;1.90;;;1.13;;
13163;SDS011;6647;53.688;10.746;2022-09-21T00:03:20;1.33;;;1.10;;
13163;SDS011;6647;53.688;10.746;2022-09-21T00:04:41;1.50;;;1.27;;
13163;SDS011;6647;53.688;10.746;2022-09-21T00:06:03;2.30;;;1.10;;
13163;SDS011;6647;53.688;10.746;2022-09-21T00:07:25;1.67;;;1.10;;
13163;SDS011;6647;53.688;10.746;2022-09-21T00:08:46;1.30;;;1.00;;
13163;SDS011;6647;53.688;10.746;2022-09-21T00:10:07;1.88;;;1.23;;
13163;SDS011;6647;53.688;10.746;2022-09-21T00:11:29;1.85;;;1.05;;
13163;SDS011;6647;53.688;10.746;2022-09-21T00:12:51;1.25;;;1.00;;
13163;SDS011;6647;53.688;10.746;2022-09-21T00:14:12;2.15;;;1.08;;
13163;SDS011;6647;53.688;10.746;2022-09-21T00:15:34;3.17;;;1.50;;
13163;SDS011;6647;53.688;10.746;2022-09-21T00:16:55;2.10;;;1.15;;
13163;SDS011;6647;53.688;10.746;2022-09-21T00:18:15;1.98;;;1.05;;
13163;SDS011;6647;53.688;10.746;2022-09-21T00:19:36;2.03;;;1.13;;
13163;SDS011;6647;53.688;10.746;2022-09-21T00:20:58;3.53;;;1.67;;
13163;SDS011;6647;53.688;10.746;2022-09-21T00:22:19;1.50;;;1.00;;
13163;SDS011;6647;53.688;10.746;2022-09-21T00:23:40;1.00;;;0.90;;
13163;SDS011;6647;53.688;10.746;2022-09-21T00:25:01;2.75;;;1.38;;
13163;SDS011;6647;53.688;10.746;2022-09-21T00:26:24;1.48;;;1.00;;
13163;SDS011;6647;53.688;10.746;2022-09-21T00:27:46;1.40;;;1.20;;
13163;SDS011;6647;53.688;10.746;2022-09-21T00:29:10;2.30;;;1.05;;
13163;SDS011;6647;53.688;10.746;2022-09-21T00:30:33;1.17;;;1.00;;
13163;SDS011;6647;53.688;10.746;2022-09-21T00:31:54;3.15;;;1.00;;
13163;SDS011;6647;53.688;10.746;2022-09-21T00:33:14;3.05;;;1.33;;
13163;SDS011;6647;53.688;10.746;2022-09-21T00:34:35;1.30;;;1.10;;
13163;SDS011;6647;53.688;10.746;2022-09-21T00:36:00;3.72;;;1.15;;
13163;SDS011;6647;53.688;10.746;2022-09-21T00:37:25;1.67;;;1.30;;
13163;SDS011;6647;53.688;10.746;2022-09-21T00:38:50;2.38;;;1.15;;
13163;SDS011;6647;53.688;10.746;2022-09-21T00:40:13;2.00;;;1.05;;
13163;SDS011;6647;53.688;10.746;2022-09-21T00:41:34;3.42;;;1.33;;
13163;SDS011;6647;53.688;10.746;2022-09-21T00:43:14;1.50;;;1.17;;
13163;SDS011;6647;53.688;10.746;2022-09-21T00:44:36;3.63;;;1.50;;
13163;SDS011;6647;53.688;10.746;2022-09-21T00:46:02;1.85;;;1.00;;
13163;SDS011;6647;53.688;10.746;2022-09-21T00:47:32;2.17;;;1.40;;
13163;SDS011;6647;53.688;10.746;2022-09-21T00:48:53;2.85;;;1.10;;
13163;SDS011;6647;53.688;10.746;2022-09-21T00:50:17;1.88;;;1.10;;
13163;SDS011;6647;53.688;10.746;2022-09-21T00:51:41;2.63;;;1.05;;
13163;SDS011;6647;53.688;10.746;2022-09-21T00:53:02;1.50;;;1.35;;
13163;SDS011;6647;53.688;10.746;2022-09-21T00:54:26;1.42;;;1.13;;
13163;SDS011;6647;53.688;10.746;2022-09-21T00:55:53;1.85;;;1.10;;
13163;SDS011;6647;53.688;10.746;2022-09-21T00:57:19;1.80;;;1.17;;
13163;SDS011;6647;53.688;10.746;2022-09-21T00:58:44;1.55;;;0.90;;
13163;SDS011;6647;53.688;10.746;2022-09-21T01:00:08;3.63;;;1.42;;
13163;SDS011;6647;53.688;10.746;2022-09-21T01:01:30;2.03;;;1.27;;
13163;SDS011;6647;53.688;10.746;2022-09-21T01:02:51;4.10;;;1.50;;
13163;SDS011;6647;53.688;10.746;2022-09-21T01:04:12;2.50;;;1.50;;
13163;SDS011;6647;53.688;10.746;2022-09-21T01:05:36;3.95;;;1.60;;
13163;SDS011;6647;53.688;10.746;2022-09-21T01:06:57;2.97;;;1.30;;
13163;SDS011;6647;53.688;10.746;2022-09-21T01:08:21;1.75;;;1.13;;
13163;SDS011;6647;53.688;10.746;2022-09-21T01:09:49;2.58;;;1.15;;
13163;SDS011;6647;53.688;10.746;2022-09-21T01:11:21;1.35;;;1.25;;
13163;SDS011;6647;53.688;10.746;2022-09-21T01:13:25;5.65;;;1.40;;
13163;SDS011;6647;53.688;10.746;2022-09-21T01:24:31;1.77;;;1.00;;
13163;SDS011;6647;53.688;10.746;2022-09-21T01:25:58;2.55;;;1.45;;
13163;SDS011;6647;53.688;10.746;2022-09-21T01:27:31;1.35;;;1.23;;
13163;SDS011;6647;53.688;10.746;2022-09-21T01:29:19;1.67;;;1.30;;
13163;SDS011;6647;53.688;10.746;2022-09-21T01:30:48;2.97;;;1.35;;
13163;SDS011;6647;53.688;10.746;2022-09-21T01:32:16;2.40;;;1.10;;
13163;SDS011;6647;53.688;10.746;2022-09-21T01:33:46;3.20;;;1.40;;
13163;SDS011;6647;53.688;10.746;2022-09-21T01:35:26;2.60;;;1.23;;
13163;SDS011;6647;53.688;10.746;2022-09-21T01:36:51;2.45;;;1.45;;
13163;SDS011;6647;53.688;10.746;2022-09-21T01:38:16;1.85;;;1.10;;
13163;SDS011;6647;53.688;10.746;2022-09-21T01:39:46;2.45;;;1.52;;
13163;SDS011;6647;53.688;10.746;2022-09-21T01:41:12;2.25;;;1.20;;
13163;SDS011;6647;53.688;10.746;2022-09-21T01:42:40;1.70;;;1.00;;
13163;SDS011;6647;53.688;10.746;2022-09-21T01:44:05;1.88;;;1.33;;
13163;SDS011;6647;53.688;10.746;2022-09-21T01:45:35;1.70;;;1.40;;
13163;SDS011;6647;53.688;10.746;2022-09-21T01:47:00;1.48;;;1.38;;
13163;SDS011;6647;53.688;10.746;2022-09-21T01:48:23;2.35;;;1.30;;
13163;SDS011;6647;53.688;10.746;2022-09-21T01:49:46;0.98;;;0.98;;
13163;SDS011;6647;53.688;10.746;2022-09-21T01:51:12;1.50;;;1.13;;
13163;SDS011;6647;53.688;10.746;2022-09-21T01:52:39;3.13;;;0.85;;
13163;SDS011;6647;53.688;10.746;2022-09-21T01:54:16;5.95;;;1.30;;
13163;SDS011;6647;53.688;10.746;2022-09-21T01:55:42;5.95;;;1.20;;
13163;SDS011;6647;53.688;10.746;2022-09-21T01:57:23;2.35;;;1.20;;
13163;SDS011;6647;53.688;10.746;2022-09-21T01:59:10;1.63;;;1.25;;
13163;SDS011;6647;53.688;10.746;2022-09-21T02:00:33;2.10;;;1.35;;
13163;SDS011;6647;53.688;10.746;2022-09-21T02:01:56;2.25;;;1.30;;
13163;SDS011;6647;53.688;10.746;2022-09-21T02:05:04;2.92;;;1.00;;
13163;SDS011;6647;53.688;10.746;2022-09-21T02:06:26;8.00;;;1.75;;
13163;SDS011;6647;53.688;10.746;2022-09-21T02:07:49;1.30;;;1.17;;
13163;SDS011;6647;53.688;10.746;2022-09-21T02:09:11;2.47;;;1.20;;
13163;SDS011;6647;53.688;10.746;2022-09-21T02:10:43;6.40;;;1.17;;
13163;SDS011;6647;53.688;10.746;2022-09-21T02:12:07;1.40;;;1.15;;
13163;SDS011;6647;53.688;10.746;2022-09-21T02:13:30;2.25;;;1.40;;
13163;SDS011;6647;53.688;10.746;2022-09-21T02:14:57;3.30;;;1.48;;
13163;SDS011;6647;53.688;10.746;2022-09-21T02:18:04;1.42;;;1.08;;
13163;SDS011;6647;53.688;10.746;2022-09-21T02:19:56;1.40;;;1.30;;
13163;SDS011;6647;53.688;10.746;2022-09-21T02:21:29;1.98;;;1.00;;
13163;SDS011;6647;53.688;10.746;2022-09-21T02:22:59;1.90;;;1.50;;
13163;SDS011;6647;53.688;10.746;2022-09-21T02:25:03;1.15;;;1.05;;
13163;SDS011;6647;53.688;10.746;2022-09-21T02:26:39;3.28;;;1.52;;
13163;SDS011;6647;53.688;10.746;2022-09-21T02:28:07;3.70;;;1.33;;
13163;SDS011;6647;53.688;10.746;2022-09-21T02:29:48;2.75;;;1.48;;
13163;SDS011;6647;53.688;10.746;2022-09-21T02:31:25;2.17;;;1.50;;
13163;SDS011;6647;53.688;10.746;2022-09-21T02:33:11;2.20;;;2.00;;
13163;SDS011;6647;53.688;10.746;2022-09-21T02:34:44;2.08;;;1.42;;
13163;SDS011;6647;53.688;10.746;2022-09-21T02:36:11;1.67;;;1.58;;
13163;SDS011;6647;53.688;10.746;2022-09-21T02:37:50;1.75;;;1.42;;
13163;SDS011;6647;53.688;10.746;2022-09-21T02:39:23;2.58;;;1.38;;
13163;SDS011;6647;53.688;10.746;2022-09-21T02:42:40;1.95;;;1.20;;
13163;SDS011;6647;53.688;10.746;2022-09-21T02:44:12;1.60;;;1.48;;
13163;SDS011;6647;53.688;10.746;2022-09-21T02:45:44;2.08;;;1.40;;
13163;SDS011;6647;53.688;10.746;2022-09-21T02:47:15;1.35;;;1.10;;
13163;SDS011;6647;53.688;10.746;2022-09-21T02:48:47;1.52;;;1.15;;
13163;SDS011;6647;53.688;10.746;2022-09-21T02:50:13;2.33;;;1.58;;
13163;SDS011;6647;53.688;10.746;2022-09-21T02:51:41;1.63;;;1.50;;
13163;SDS011;6647;53.688;10.746;2022-09-21T02:53:06;1.63;;;1.30;;
13163;SDS011;6647;53.688;10.746;2022-09-21T02:54:31;2.45;;;1.50;;
13163;SDS011;6647;53.688;10.746;2022-09-21T02:55:53;3.38;;;1.23;;
13163;SDS011;6647;53.688;10.746;2022-09-21T02:57:18;2.65;;;1.55;;
13163;SDS011;6647;53.688;10.746;2022-09-21T02:58:45;1.90;;;1.40;;
13163;SDS011;6647;53.688;10.746;2022-09-21T03:00:10;1.85;;;1.50;;
13163;SDS011;6647;53.688;10.746;2022-09-21T03:01:31;1.60;;;1.25;;
13163;SDS011;6647;53.688;10.746;2022-09-21T03:02:53;2.55;;;1.58;;
13163;SDS011;6647;53.688;10.746;2022-09-21T03:04:13;2.58;;;1.30;;
13163;SDS011;6647;53.688;10.746;2022-09-21T03:05:35;2.10;;;1.50;;
13163;SDS011;6647;53.688;10.746;2022-09-21T03:06:56;2.25;;;1.48;;
13163;SDS011;6647;53.688;10.746;2022-09-21T03:08:17;2.10;;;1.58;;
13163;SDS011;6647;53.688;10.746;2022-09-21T03:09:39;1.40;;;1.30;;
13163;SDS011;6647;53.688;10.746;2022-09-21T03:11:00;1.77;;;1.25;;
13163;SDS011;6647;53.688;10.746;2022-09-21T03:12:21;2.90;;;1.52;;
13163;SDS011;6647;53.688;10.746;2022-09-21T03:13:42;1.40;;;1.17;;
13163;SDS011;6647;53.688;10.746;2022-09-21T03:15:04;2.65;;;1.30;;
13163;SDS011;6647;53.688;10.746;2022-09-21T03:16:25;3.20;;;1.65;;
13163;SDS011;6647;53.688;10.746;2022-09-21T03:17:46;2.58;;;1.35;;
13163;SDS011;6647;53.688;10.746;2022-09-21T03:19:06;3.17;;;1.50;;
13163;SDS011;6647;53.688;10.746;2022-09-21T03:20:28;2.78;;;1.45;;
13163;SDS011;6647;53.688;10.746;2022-09-21T03:21:51;1.98;;;1.70;;
13163;SDS011;6647;53.688;10.746;2022-09-21T03:23:13;2.75;;;1.52;;
13163;SDS011;6647;53.688;10.746;2022-09-21T03:24:34;1.98;;;1.40;;
13163;SDS011;6647;53.688;10.746;2022-09-21T03:26:04;2.15;;;1.80;;
13163;SDS011;6647;53.688;10.746;2022-09-21T03:27:25;3.28;;;1.45;;
13163;SDS011;6647;53.688;10.746;2022-09-21T03:28:47;2.78;;;1.83;;
13163;SDS011;6647;53.688;10.746;2022-09-21T03:30:09;1.85;;;1.58;;
13163;SDS011;6647;53.688;10.746;2022-09-21T03:31:30;1.50;;;1.35;;
13163;SDS011;6647;53.688;10.746;2022-09-21T03:32:52;2.00;;;1.60;;
13163;SDS011;6647;53.688;10.746;2022-09-21T03:34:13;2.83;;;1.55;;
13163;SDS011;6647;53.688;10.746;2022-09-21T03:35:34;1.33;;;1.23;;
13163;SDS011;6647;53.688;10.746;2022-09-21T03:36:55;2.95;;;1.38;;
13163;SDS011;6647;53.688;10.746;2022-09-21T03:38:16;2.90;;;1.50;;
13163;SDS011;6647;53.688;10.746;2022-09-21T03:39:38;1.95;;;1.33;;
13163;SDS011;6647;53.688;10.746;2022-09-21T03:40:59;2.08;;;1.88;;
13163;SDS011;6647;53.688;10.746;2022-09-21T03:42:20;1.98;;;1.40;;
13163;SDS011;6647;53.688;10.746;2022-09-21T03:43:41;4.18;;;1.60;;
13163;SDS011;6647;53.688;10.746;2022-09-21T03:45:01;3.72;;;1.35;;
13163;SDS011;6647;53.688;10.746;2022-09-21T03:46:22;1.67;;;1.58;;
13163;SDS011;6647;53.688;10.746;2022-09-21T03:47:43;1.40;;;1.30;;
13163;SDS011;6647;53.688;10.746;2022-09-21T03:49:04;3.22;;;1.70;;
13163;SDS011;6647;53.688;10.746;2022-09-21T03:50:25;1.20;;;1.10;;
13163;SDS011;6647;53.688;10.746;2022-09-21T03:51:47;3.25;;;1.65;;
13163;SDS011;6647;53.688;10.746;2022-09-21T03:53:08;3.72;;;1.48;;
13163;SDS011;6647;53.688;10.746;2022-09-21T03:54:30;1.58;;;1.48;;
13163;SDS011;6647;53.688;10.746;2022-09-21T03:55:50;2.25;;;1.45;;
13163;SDS011;6647;53.688;10.746;2022-09-21T03:57:11;2.08;;;1.48;;
13163;SDS011;6647;53.688;10.746;2022-09-21T03:58:32;2.00;;;1.20;;
13163;SDS011;6647;53.688;10.746;2022-09-21T03:59:53;1.40;;;1.30;;
13163;SDS011;6647;53.688;10.746;2022-09-21T04:01:14;2.53;;;1.30;;
13163;SDS011;6647;53.688;10.746;2022-09-21T04:02:35;1.80;;;1.42;;
13163;SDS011;6647;53.688;10.746;2022-09-21T04:03:59;2.45;;;1.35;;
13163;SDS011;6647;53.688;10.746;2022-09-21T04:05:20;1.35;;;1.25;;
13163;SDS011;6647;53.688;10.746;2022-09-21T04:06:41;3.75;;;1.90;;
13163;SDS011;6647;53.688;10.746;2022-09-21T04:08:02;2.75;;;1.27;;
13163;SDS011;6647;53.688;10.746;2022-09-21T04:09:23;2.83;;;1.30;;
13163;SDS011;6647;53.688;10.746;2022-09-21T04:10:44;1.48;;;1.20;;
13163;SDS011;6647;53.688;10.746;2022-09-21T04:12:05;3.17;;;1.40;;
13163;SDS011;6647;53.688;10.746;2022-09-21T04:13:26;1.92;;;1.27;;
13163;SDS011;6647;53.688;10.746;2022-09-21T04:14:47;1.35;;;1.25;;
13163;SDS011;6647;53.688;10.746;2022-09-21T04:16:09;1.10;;;1.08;;
13163;SDS011;6647;53.688;10.746;2022-09-21T04:17:30;1.77;;;1.63;;
13163;SDS011;6647;53.688;10.746;2022-09-21T04:18:54;1.65;;;1.52;;
13163;SDS011;6647;53.688;10.746;2022-09-21T04:20:14;1.40;;;1.27;;
13163;SDS011;6647;53.688;10.746;2022-09-21T04:21:35;3.25;;;1.50;;
13163;SDS011;6647;53.688;10.746;2022-09-21T04:22:56;1.67;;;1.40;;
13163;SDS011;6647;53.688;10.746;2022-09-21T04:24:19;1.40;;;1.30;;
13163;SDS011;6647;53.688;10.746;2022-09-21T04:25:40;2.55;;;1.38;;
13163;SDS011;6647;53.688;10.746;2022-09-21T04:27:01;2.03;;;1.45;;
13163;SDS011;6647;53.688;10.746;2022-09-21T04:28:22;2.00;;;1.40;;
13163;SDS011;6647;53.688;10.746;2022-09-21T04:29:43;2.10;;;1.50;;
13163;SDS011;6647;53.688;10.746;2022-09-21T04:31:04;3.05;;;1.77;;
13163;SDS011;6647;53.688;10.746;2022-09-21T04:32:24;1.73;;;1.63;;
13163;SDS011;6647;53.688;10.746;2022-09-21T04:33:52;2.05;;;1.77;;
13163;SDS011;6647;53.688;10.746;2022-09-21T04:35:14;1.77;;;1.67;;
13163;SDS011;6647;53.688;10.746;2022-09-21T04:36:35;4.57;;;1.65;;
13163;SDS011;6647;53.688;10.746;2022-09-21T04:37:56;2.70;;;1.67;;
13163;SDS011;6647;53.688;10.746;2022-09-21T04:39:17;1.83;;;1.67;;
13163;SDS011;6647;53.688;10.746;2022-09-21T04:40:38;1.70;;;1.55;;
13163;SDS011;6647;53.688;10.746;2022-09-21T04:41:59;4.80;;;2.28;;
13163;SDS011;6647;53.688;10.746;2022-09-21T04:43:20;2.20;;;1.33;;
13163;SDS011;6647;53.688;10.746;2022-09-21T04:44:40;2.20;;;2.00;;
13163;SDS011;6647;53.688;10.746;2022-09-21T04:46:05;4.55;;;1.85;;
13163;SDS011;6647;53.688;10.746;2022-09-21T04:47:31;2.33;;;2.13;;
13163;SDS011;6647;53.688;10.746;2022-09-21T04:48:52;2.42;;;1.88;;
13163;SDS011;6647;53.688;10.746;2022-09-21T04:50:13;2.10;;;1.60;;
13163;SDS011;6647;53.688;10.746;2022-09-21T04:51:35;2.25;;;1.83;;
13163;SDS011;6647;53.688;10.746;2022-09-21T04:52:56;3.65;;;1.90;;
13163;SDS011;6647;53.688;10.746;2022-09-21T04:54:17;4.10;;;1.52;;
13163;SDS011;6647;53.688;10.746;2022-09-21T04:55:38;1.90;;;1.50;;
13163;SDS011;6647;53.688;10.746;2022-09-21T04:56:59;5.53;;;2.03;;
13163;SDS011;6647;53.688;10.746;2022-09-21T04:58:21;2.20;;;2.00;;
13163;SDS011;6647;53.688;10.746;2022-09-21T04:59:42;5.13;;;2.17;;
13163;SDS011;6647;53.688;10.746;2022-09-21T05:01:03;2.47;;;1.65;;
13163;SDS011;6647;53.688;10.746;2022-09-21T05:02:25;4.30;;;1.80;;
13163;SDS011;6647;53.688;10.746;2022-09-21T05:03:46;4.43;;;2.00;;
13163;SDS011;6647;53.688;10.746;2022-09-21T05:05:07;2.85;;;1.95;;
13163;SDS011;6647;53.688;10.746;2022-09-21T05:06:28;2.75;;;2.08;;
13163;SDS011;6647;53.688;10.746;2022-09-21T05:07:50;2.78;;;1.77;;
13163;SDS011;6647;53.688;10.746;2022-09-21T05:09:10;1.80;;;1.70;;
13163;SDS011;6647;53.688;10.746;2022-09-21T05:10:50;1.77;;;1.63;;
13163;SDS011;6647;53.688;10.746;2022-09-21T05:12:12;3.15;;;1.80;;
13163;SDS011;6647;53.688;10.746;2022-09-21T05:13:33;2.05;;;1.90;;
13163;SDS011;6647;53.688;10.746;2022-09-21T05:14:53;3.72;;;2.25;;
13163;SDS011;6647;53.688;10.746;2022-09-21T05:16:15;3.30;;;1.73;;
13163;SDS011;6647;53.688;10.746;2022-09-21T05:17:37;2.10;;;2.00;;
13163;SDS011;6647;53.688;10.746;2022-09-21T05:18:59;3.17;;;2.20;;
13163;SDS011;6647;53.688;10.746;2022-09-21T05:20:20;2.55;;;1.83;;
13163;SDS011;6647;53.688;10.746;2022-09-21T05:21:43;2.08;;;1.67;;
13163;SDS011;6647;53.688;10.746;2022-09-21T05:23:05;3.33;;;2.42;;
13163;SDS011;6647;53.688;10.746;2022-09-21T05:24:26;3.45;;;2.25;;
13163;SDS011;6647;53.688;10.746;2022-09-21T05:25:47;3.60;;;2.20;;
13163;SDS011;6647;53.688;10.746;2022-09-21T05:27:08;2.65;;;1.77;;
13163;SDS011;6647;53.688;10.746;2022-09-21T05:28:29;5.22;;;1.88;;
13163;SDS011;6647;53.688;10.746;2022-09-21T05:29:51;2.20;;;2.00;;
13163;SDS011;6647;53.688;10.746;2022-09-21T05:31:22;5.25;;;1.98;;
13163;SDS011;6647;53.688;10.746;2022-09-21T05:32:53;2.25;;;2.05;;
13163;SDS011;6647;53.688;10.746;2022-09-21T05:35:47;1.98;;;1.70;;
13163;SDS011;6647;53.688;10.746;2022-09-21T05:37:26;3.83;;;1.95;;
13163;SDS011;6647;53.688;10.746;2022-09-21T05:39:10;1.92;;;1.63;;
13163;SDS011;6647;53.688;10.746;2022-09-21T05:40:32;2.28;;;1.40;;
13163;SDS011;6647;53.688;10.746;2022-09-21T05:41:53;2.30;;;1.70;;
13163;SDS011;6647;53.688;10.746;2022-09-21T05:43:15;1.70;;;1.52;;
13163;SDS011;6647;53.688;10.746;2022-09-21T05:44:36;3.28;;;2.15;;
13163;SDS011;6647;53.688;10.746;2022-09-21T05:46:02;1.95;;;1.75;;
13163;SDS011;6647;53.688;10.746;2022-09-21T05:47:36;1.65;;;1.55;;
13163;SDS011;6647;53.688;10.746;2022-09-21T05:48:59;2.67;;;1.40;;
13163;SDS011;6647;53.688;10.746;2022-09-21T05:52:11;3.13;;;1.73;;
13163;SDS011;6647;53.688;10.746;2022-09-21T05:55:54;5.57;;;1.92;;
13163;SDS011;6647;53.688;10.746;2022-09-21T05:57:28;2.95;;;2.17;;
13163;SDS011;6647;53.688;10.746;2022-09-21T05:59:45;2.25;;;1.85;;
13163;SDS011;6647;53.688;10.746;2022-09-21T06:00:59;1.63;;;1.52;;
13163;SDS011;6647;53.688;10.746;2022-09-21T06:04:21;2.45;;;1.40;;
13163;SDS011;6647;53.688;10.746;2022-09-21T06:05:42;1.85;;;1.40;;
13163;SDS011;6647;53.688;10.746;2022-09-21T06:07:04;2.17;;;1.70;;
13163;SDS011;6647;53.688;10.746;2022-09-21T06:08:25;3.92;;;1.80;;
13163;SDS011;6647;53.688;10.746;2022-09-21T06:09:46;4.03;;;2.00;;
13163;SDS011;6647;53.688;10.746;2022-09-21T06:11:07;2.58;;;1.45;;
13163;SDS011;6647;53.688;10.746;2022-09-21T06:12:28;1.38;;;1.23;;
13163;SDS011;6647;53.688;10.746;2022-09-21T06:13:49;3.05;;;1.40;;
13163;SDS011;6647;53.688;10.746;2022-09-21T06:15:11;2.25;;;1.15;;
13163;SDS011;6647;53.688;10.746;2022-09-21T06:16:40;4.63;;;1.50;;
13163;SDS011;6647;53.688;10.746;2022-09-21T06:18:03;1.42;;;1.33;;
13163;SDS011;6647;53.688;10.746;2022-09-21T06:19:25;3.47;;;1.50;;
13163;SDS011;6647;53.688;10.746;2022-09-21T06:20:46;1.65;;;1.55;;
13163;SDS011;6647;53.688;10.746;2022-09-21T06:22:07;4.57;;;1.88;;
13163;SDS011;6647;53.688;10.746;2022-09-21T06:23:27;2.25;;;1.45;;
13163;SDS011;6647;53.688;10.746;2022-09-21T06:24:48;2.28;;;1.30;;
13163;SDS011;6647;53.688;10.746;2022-09-21T06:26:09;2.30;;;1.92;;
13163;SDS011;6647;53.688;10.746;2022-09-21T06:27:30;3.20;;;1.50;;
13163;SDS011;6647;53.688;10.746;2022-09-21T06:28:51;3.45;;;2.03;;
13163;SDS011;6647;53.688;10.746;2022-09-21T06:30:12;3.78;;;2.30;;
13163;SDS011;6647;53.688;10.746;2022-09-21T06:31:32;2.42;;;1.70;;
13163;SDS011;6647;53.688;10.746;2022-09-21T06:32:54;2.63;;;1.70;;
13163;SDS011;6647;53.688;10.746;2022-09-21T06:34:18;3.50;;;2.45;;
13163;SDS011;6647;53.688;10.746;2022-09-21T06:35:39;2.55;;;2.00;;
13163;SDS011;6647;53.688;10.746;2022-09-21T06:37:00;2.17;;;1.90;;
13163;SDS011;6647;53.688;10.746;2022-09-21T06:38:21;8.32;;;1.83;;
13163;SDS011;6647;53.688;10.746;2022-09-21T06:39:42;3.35;;;2.15;;
13163;SDS011;6647;53.688;10.746;2022-09-21T06:41:03;2.80;;;1.80;;
13163;SDS011;6647;53.688;10.746;2022-09-21T06:42:25;2.83;;;1.88;;
13163;SDS011;6647;53.688;10.746;2022-09-21T06:43:47;5.18;;;2.50;;
13163;SDS011;6647;53.688;10.746;2022-09-21T06:45:08;4.63;;;1.58;;
13163;SDS011;6647;53.688;10.746;2022-09-21T06:46:29;2.42;;;1.90;;
13163;SDS011;6647;53.688;10.746;2022-09-21T06:47:50;3.13;;;2.45;;
13163;SDS011;6647;53.688;10.746;2022-09-21T06:49:10;3.00;;;2.05;;
13163;SDS011;6647;53.688;10.746;2022-09-21T06:50:31;5.22;;;1.95;;
13163;SDS011;6647;53.688;10.746;2022-09-21T06:51:53;2.15;;;2.00;;
13163;SDS011;6647;53.688;10.746;2022-09-21T06:53:14;3.40;;;1.98;;
13163;SDS011;6647;53.688;10.746;2022-09-21T06:54:37;2.47;;;1.90;;
13163;SDS011;6647;53.688;10.746;2022-09-21T06:55:59;1.80;;;1.67;;
13163;SDS011;6647;53.688;10.746;2022-09-21T06:57:24;5.07;;;2.90;;
13163;SDS011;6647;53.688;10.746;2022-09-21T06:58:45;2.35;;;2.15;;
13163;SDS011;6647;53.688;10.746;2022-09-21T07:00:08;2.20;;;2.00;;
13163;SDS011;6647;53.688;10.746;2022-09-21T07:01:30;5.93;;;2.00;;
13163;SDS011;6647;53.688;10.746;2022-09-21T07:02:51;2.70;;;2.50;;
13163;SDS011;6647;53.688;10.746;2022-09-21T07:04:12;4.07;;;2.30;;
13163;SDS011;6647;53.688;10.746;2022-09-21T07:05:33;7.05;;;2.60;;
13163;SDS011;6647;53.688;10.746;2022-09-21T07:06:54;5.03;;;2.75;;
13163;SDS011;6647;53.688;10.746;2022-09-21T07:08:14;5.10;;;3.10;;
13163;SDS011;6647;53.688;10.746;2022-09-21T07:09:35;3.05;;;2.30;;
13163;SDS011;6647;53.688;10.746;2022-09-21T07:10:57;6.88;;;3.03;;
13163;SDS011;6647;53.688;10.746;2022-09-21T07:12:19;3.78;;;3.38;;
13163;SDS011;6647;53.688;10.746;2022-09-21T07:13:39;5.97;;;2.40;;
13163;SDS011;6647;53.688;10.746;2022-09-21T07:15:02;3.88;;;2.83;;
13163;SDS011;6647;53.688;10.746;2022-09-21T07:16:23;5.40;;;2.70;;
13163;SDS011;6647;53.688;10.746;2022-09-21T07:17:44;4.03;;;3.00;;
13163;SDS011;6647;53.688;10.746;2022-09-21T07:19:06;4.30;;;3.25;;
13163;SDS011;6647;53.688;10.746;2022-09-21T07:20:26;3.13;;;2.40;;
13163;SDS011;6647;53.688;10.746;2022-09-21T07:21:47;5.18;;;2.92;;
13163;SDS011;6647;53.688;10.746;2022-09-21T07:23:11;5.30;;;2.63;;
13163;SDS011;6647;53.688;10.746;2022-09-21T07:24:34;2.97;;;2.65;;
13163;SDS011;6647;53.688;10.746;2022-09-21T07:25:59;3.97;;;2.80;;
13163;SDS011;6647;53.688;10.746;2022-09-21T07:27:21;3.55;;;3.25;;
13163;SDS011;6647;53.688;10.746;2022-09-21T07:28:42;3.05;;;2.72;;
13163;SDS011;6647;53.688;10.746;2022-09-21T07:30:03;3.75;;;2.92;;
13163;SDS011;6647;53.688;10.746;2022-09-21T07:31:25;3.20;;;2.55;;
13163;SDS011;6647;53.688;10.746;2022-09-21T07:32:46;3.78;;;2.60;;
13163;SDS011;6647;53.688;10.746;2022-09-21T07:34:08;3.97;;;2.97;;
13163;SDS011;6647;53.688;10.746;2022-09-21T07:35:29;5.15;;;3.55;;
13163;SDS011;6647;53.688;10.746;2022-09-21T07:36:50;4.88;;;2.95;;
13163;SDS011;6647;53.688;10.746;2022-09-21T07:38:11;6.90;;;3.42;;
13163;SDS011;6647;53.688;10.746;2022-09-21T07:39:31;8.13;;;3.35;;
13163;SDS011;6647;53.688;10.746;2022-09-21T07:40:52;4.25;;;3.15;;
13163;SDS011;6647;53.688;10.746;2022-09-21T07:42:13;9.35;;;3.58;;
13163;SDS011;6647;53.688;10.746;2022-09-21T07:43:34;8.15;;;3.05;;
13163;SDS011;6647;53.688;10.746;2022-09-21T07:44:58;4.00;;;2.90;;
13163;SDS011;6647;53.688;10.746;2022-09-21T07:46:19;5.90;;;3.30;;
13163;SDS011;6647;53.688;10.746;2022-09-21T07:47:40;6.47;;;3.70;;
13163;SDS011;6647;53.688;10.746;2022-09-21T07:49:01;3.28;;;2.97;;
13163;SDS011;6647;53.688;10.746;2022-09-21T07:50:23;3.33;;;3.00;;
13163;SDS011;6647;53.688;10.746;2022-09-21T07:51:44;3.80;;;2.55;;
13163;SDS011;6647;53.688;10.746;2022-09-21T07:53:05;5.07;;;2.95;;
13163;SDS011;6647;53.688;10.746;2022-09-21T07:54:26;4.10;;;3.40;;
13163;SDS011;6647;53.688;10.746;2022-09-21T07:55:47;4.65;;;2.33;;
13163;SDS011;6647;53.688;10.746;2022-09-21T07:57:07;4.05;;;3.05;;
13163;SDS011;6647;53.688;10.746;2022-09-21T07:58:47;3.83;;;2.50;;
13163;SDS011;6647;53.688;10.746;2022-09-21T08:00:26;7.93;;;3.33;;
13163;SDS011;6647;53.688;10.746;2022-09-21T08:01:54;3.33;;;3.08;;
13163;SDS011;6647;53.688;10.746;2022-09-21T08:03:15;4.82;;;2.83;;
13163;SDS011;6647;53.688;10.746;2022-09-21T08:04:36;4.90;;;2.92;;
13163;SDS011;6647;53.688;10.746;2022-09-21T08:05:57;2.95;;;2.50;;
13163;SDS011;6647;53.688;10.746;2022-09-21T08:07:19;3.20;;;2.63;;
13163;SDS011;6647;53.688;10.746;2022-09-21T08:08:39;2.60;;;2.40;;
13163;SDS011;6647;53.688;10.746;2022-09-21T08:10:00;3.72;;;2.47;;
13163;SDS011;6647;53.688;10.746;2022-09-21T08:11:21;7.13;;;2.17;;
13163;SDS011;6647;53.688;10.746;2022-09-21T08:12:42;4.30;;;2.20;;
13163;SDS011;6647;53.688;10.746;2022-09-21T08:14:03;3.85;;;1.90;;
13163;SDS011;6647;53.688;10.746;2022-09-21T08:15:24;2.08;;;1.90;;
13163;SDS011;6647;53.688;10.746;2022-09-21T08:16:46;6.03;;;2.40;;
13163;SDS011;6647;53.688;10.746;2022-09-21T08:18:07;3.35;;;1.60;;
13163;SDS011;6647;53.688;10.746;2022-09-21T08:19:28;4.68;;;2.33;;
13163;SDS011;6647;53.688;10.746;2022-09-21T08:20:59;4.22;;;2.25;;
13163;SDS011;6647;53.688;10.746;2022-09-21T08:22:21;2.10;;;1.40;;
13163;SDS011;6647;53.688;10.746;2022-09-21T08:23:45;3.28;;;1.70;;
13163;SDS011;6647;53.688;10.746;2022-09-21T08:25:07;5.85;;;1.33;;
13163;SDS011;6647;53.688;10.746;2022-09-21T08:26:29;1.40;;;1.30;;
13163;SDS011;6647;53.688;10.746;2022-09-21T08:27:50;2.85;;;1.30;;
13163;SDS011;6647;53.688;10.746;2022-09-21T08:29:11;8.13;;;1.50;;
13163;SDS011;6647;53.688;10.746;2022-09-21T08:30:35;1.65;;;1.00;;
13163;SDS011;6647;53.688;10.746;2022-09-21T08:31:56;1.40;;;1.30;;
13163;SDS011;6647;53.688;10.746;2022-09-21T08:33:17;1.73;;;1.05;;
13163;SDS011;6647;53.688;10.746;2022-09-21T08:34:38;1.55;;;1.17;;
13163;SDS011;6647;53.688;10.746;2022-09-21T08:35:59;2.10;;;1.40;;
13163;SDS011;6647;53.688;10.746;2022-09-21T08:37:20;3.72;;;1.17;;
13163;SDS011;6647;53.688;10.746;2022-09-21T08:38:42;3.75;;;0.93;;
13163;SDS011;6647;53.688;10.746;2022-09-21T08:40:04;5.25;;;1.20;;
13163;SDS011;6647;53.688;10.746;2022-09-21T08:42:58;1.05;;;0.82;;
13163;SDS011;6647;53.688;10.746;2022-09-21T08:44:32;3.63;;;0.63;;
13163;SDS011;6647;53.688;10.746;2022-09-21T08:46:05;1.23;;;0.90;;
13163;SDS011;6647;53.688;10.746;2022-09-21T08:47:37;0.80;;;0.80;;
13163;SDS011;6647;53.688;10.746;2022-09-21T08:49:07;2.70;;;1.10;;
13163;SDS011;6647;53.688;10.746;2022-09-21T08:50:38;0.80;;;0.55;;